Time;durP1;ratioP1;P1;durP2;ratioP2;P2;SDS_P1;SDS_P2;PMS_P1;PMS_P2;Temp;Humidity;BMP_temperature;BMP_pressure;BME280_temperature;BME280_humidity;BME280_pressure;Samples;Min_cycle;Max_cycle;Signal;HPM_P1;HPM_P2
2024/02/08 00:00:57;;;;;;;33.55;17.65;;;;;;;;;;2079389;28;20036;-50
2024/02/08 00:01:58;;;;;;;32.83;21.55;;;;;;;;;;2082760;28;20075;-52
2024/02/08 00:03:00;;;;;;;35.80;20.00;;;;;;;;;;2082006;28;20013;-51
2024/02/08 00:04:01;;;;;;;33.00;20.02;;;;;;;;;;2080845;28;20022;-51
2024/02/08 00:05:03;;;;;;;30.45;18.00;;;;;;;;;;2080797;28;20017;-52
2024/02/08 00:06:05;;;;;;;29.77;16.30;;;;;;;;;;2079305;28;20097;-47
2024/02/08 00:07:06;;;;;;;30.75;16.02;;;;;;;;;;2075307;28;20033;-49
2024/02/08 00:08:08;;;;;;;22.70;14.20;;;;;;;;;;2080281;28;20026;-50
2024/02/08 00:09:09;;;;;;;24.02;14.20;;;;;;;;;;2077725;28;20026;-52
2024/02/08 00:10:10;;;;;;;28.08;13.32;;;;;;;;;;2080157;28;20025;-51
2024/02/08 00:11:12;;;;;;;21.13;11.35;;;;;;;;;;2080743;28;20022;-49
2024/02/08 00:12:13;;;;;;;23.90;12.50;;;;;;;;;;2079466;28;20499;-51
2024/02/08 00:13:14;;;;;;;24.75;12.77;;;;;;;;;;2081018;28;20018;-51
2024/02/08 00:14:15;;;;;;;21.75;12.90;;;;;;;;;;2078948;28;20162;-47
2024/02/08 00:15:17;;;;;;;25.75;11.70;;;;;;;;;;2079884;28;20396;-49
2024/02/08 00:16:18;;;;;;;24.70;12.10;;;;;;;;;;2078764;28;20022;-50
2024/02/08 00:17:20;;;;;;;19.63;11.65;;;;;;;;;;2075684;28;20028;-51
2024/02/08 00:18:21;;;;;;;31.38;12.45;;;;;;;;;;2079153;28;20029;-50
2024/02/08 00:19:22;;;;;;;26.77;12.70;;;;;;;;;;2078988;28;20044;-51
2024/02/08 00:20:26;;;;;;;25.05;12.57;;;;;;;;;;2079122;28;20431;-50
2024/02/08 00:21:28;;;;;;;22.50;11.75;;;;;;;;;;2078485;28;20033;-50
2024/02/08 00:22:29;;;;;;;21.75;11.30;;;;;;;;;;2077483;28;20494;-50
2024/02/08 00:23:30;;;;;;;21.30;11.75;;;;;;;;;;2077234;28;20018;-51
2024/02/08 00:24:36;;;;;;;25.75;12.20;;;;;;;;;;2079433;28;20022;-51
2024/02/08 00:25:38;;;;;;;19.80;11.13;;;;;;;;;;2079808;28;20113;-51
2024/02/08 00:26:41;;;;;;;21.13;11.32;;;;;;;;;;2076278;28;20060;-49
2024/02/08 00:27:42;;;;;;;24.85;11.95;;;;;;;;;;2075439;28;20024;-49
2024/02/08 00:28:43;;;;;;;21.48;11.43;;;;;;;;;;2078591;28;20028;-49
2024/02/08 00:29:45;;;;;;;20.48;11.60;;;;;;;;;;2080769;28;20033;-51
2024/02/08 00:30:46;;;;;;;30.23;12.13;;;;;;;;;;2079072;28;20465;-51
2024/02/08 00:31:48;;;;;;;21.58;11.23;;;;;;;;;;2075634;28;20037;-48
2024/02/08 00:32:50;;;;;;;27.45;12.10;;;;;;;;;;2078160;28;20784;-52
2024/02/08 00:33:51;;;;;;;20.83;12.13;;;;;;;;;;2076155;28;20022;-51
2024/02/08 00:34:52;;;;;;;20.35;11.75;;;;;;;;;;2081087;28;20041;-49
2024/02/08 00:35:53;;;;;;;23.92;11.68;;;;;;;;;;2080390;28;20028;-51
2024/02/08 00:36:55;;;;;;;20.60;11.15;;;;;;;;;;2077919;28;20020;-50
2024/02/08 00:37:56;;;;;;;22.67;11.65;;;;;;;;;;2080261;28;20093;-46
2024/02/08 00:38:57;;;;;;;25.95;12.73;;;;;;;;;;2078115;28;20453;-47
2024/02/08 00:39:59;;;;;;;24.23;12.50;;;;;;;;;;2076691;28;20029;-49
2024/02/08 00:41:00;;;;;;;19.10;11.25;;;;;;;;;;2081167;28;20180;-51
2024/02/08 00:42:01;;;;;;;25.48;12.75;;;;;;;;;;2077558;28;20522;-50
2024/02/08 00:43:06;;;;;;;23.27;12.63;;;;;;;;;;2075977;28;20492;-50
2024/02/08 00:44:07;;;;;;;23.83;11.85;;;;;;;;;;2078946;28;20022;-52
2024/02/08 00:45:10;;;;;;;23.48;11.52;;;;;;;;;;2079320;28;20351;-49
2024/02/08 00:46:15;;;;;;;24.80;11.25;;;;;;;;;;2080886;28;20034;-48
2024/02/08 00:47:17;;;;;;;25.63;11.63;;;;;;;;;;2078431;28;20018;-51
2024/02/08 00:48:21;;;;;;;24.77;11.80;;;;;;;;;;2079430;28;20029;-49
2024/02/08 00:49:22;;;;;;;21.00;11.25;;;;;;;;;;2079864;28;20013;-51
2024/02/08 00:50:24;;;;;;;24.45;11.82;;;;;;;;;;2077192;28;20079;-51
2024/02/08 00:51:25;;;;;;;25.27;11.57;;;;;;;;;;2083997;28;20459;-51
2024/02/08 00:52:26;;;;;;;20.00;11.20;;;;;;;;;;2083594;28;20063;-50
2024/02/08 00:53:27;;;;;;;24.17;11.85;;;;;;;;;;2079555;28;20021;-51
2024/02/08 00:54:29;;;;;;;22.08;11.68;;;;;;;;;;2079673;28;20033;-48
2024/02/08 00:55:30;;;;;;;23.95;12.13;;;;;;;;;;2077912;28;20021;-50
2024/02/08 00:56:34;;;;;;;21.10;11.02;;;;;;;;;;2078055;28;20053;-52
2024/02/08 00:57:35;;;;;;;22.65;12.43;;;;;;;;;;2077213;28;20025;-50
2024/02/08 00:58:36;;;;;;;24.88;11.70;;;;;;;;;;2075080;28;20121;-53
2024/02/08 00:59:38;;;;;;;24.48;11.98;;;;;;;;;;2079378;28;20025;-50
2024/02/08 01:00:40;;;;;;;21.38;11.68;;;;;;;;;;2077894;28;20331;-49
2024/02/08 01:01:41;;;;;;;28.02;12.30;;;;;;;;;;2079236;28;20021;-52
2024/02/08 01:02:45;;;;;;;19.05;10.75;;;;;;;;;;2077311;28;20083;-51
2024/02/08 01:03:46;;;;;;;22.52;10.85;;;;;;;;;;2078501;28;20026;-49
2024/02/08 01:04:48;;;;;;;22.42;10.93;;;;;;;;;;2078445;28;20056;-51
2024/02/08 01:05:52;;;;;;;18.95;10.93;;;;;;;;;;2070772;28;20061;-49
2024/02/08 01:06:53;;;;;;;20.00;11.27;;;;;;;;;;2079218;28;20045;-50
2024/02/08 01:07:54;;;;;;;21.35;10.73;;;;;;;;;;2080103;28;20519;-51
2024/02/08 01:08:56;;;;;;;24.17;10.88;;;;;;;;;;2077427;28;20025;-51
2024/02/08 01:09:57;;;;;;;21.20;11.48;;;;;;;;;;2075877;28;20484;-51
2024/02/08 01:10:58;;;;;;;24.23;10.88;;;;;;;;;;2076380;28;20505;-51
2024/02/08 01:12:01;;;;;;;20.50;11.13;;;;;;;;;;2076112;28;20033;-50
2024/02/08 01:13:04;;;;;;;20.25;10.70;;;;;;;;;;2079018;28;20049;-50
2024/02/08 01:14:05;;;;;;;20.38;11.30;;;;;;;;;;2076656;28;20104;-52
2024/02/08 01:15:07;;;;;;;21.08;10.65;;;;;;;;;;2079706;28;20071;-53
2024/02/08 01:16:12;;;;;;;21.85;11.20;;;;;;;;;;2080719;28;20031;-51
2024/02/08 01:17:14;;;;;;;21.92;10.85;;;;;;;;;;2079236;28;20041;-50
2024/02/08 01:18:17;;;;;;;18.92;10.48;;;;;;;;;;2080575;28;20542;-51
2024/02/08 01:19:22;;;;;;;23.08;10.60;;;;;;;;;;2079231;28;20116;-51
2024/02/08 01:20:27;;;;;;;22.52;11.38;;;;;;;;;;2078970;28;20412;-49
2024/02/08 01:21:30;;;;;;;22.98;10.70;;;;;;;;;;2077897;28;20105;-52
2024/02/08 01:22:31;;;;;;;20.27;11.35;;;;;;;;;;2078643;28;20486;-50
2024/02/08 01:23:32;;;;;;;19.50;11.30;;;;;;;;;;2079815;28;20018;-50
2024/02/08 01:24:34;;;;;;;19.92;10.80;;;;;;;;;;2079712;28;20025;-50
2024/02/08 01:25:36;;;;;;;22.00;10.90;;;;;;;;;;2077390;28;20097;-50
2024/02/08 01:26:37;;;;;;;19.98;10.68;;;;;;;;;;2080040;28;20025;-50
2024/02/08 01:27:38;;;;;;;26.33;11.52;;;;;;;;;;2078989;28;20006;-52
2024/02/08 01:28:40;;;;;;;24.08;10.70;;;;;;;;;;2078705;28;20013;-53
2024/02/08 01:29:41;;;;;;;24.15;11.48;;;;;;;;;;2079652;28;20021;-50
2024/02/08 01:30:42;;;;;;;22.23;11.85;;;;;;;;;;2078579;28;20049;-51
2024/02/08 01:31:44;;;;;;;24.30;10.80;;;;;;;;;;2080064;28;20031;-51
2024/02/08 01:32:48;;;;;;;17.80;10.75;;;;;;;;;;2076051;28;20041;-49
2024/02/08 01:33:50;;;;;;;20.52;10.93;;;;;;;;;;2078497;28;20117;-52
2024/02/08 01:34:52;;;;;;;19.25;10.40;;;;;;;;;;2079577;28;20029;-49
2024/02/08 01:35:54;;;;;;;18.70;11.68;;;;;;;;;;2079290;28;20034;-49
2024/02/08 01:36:55;;;;;;;23.90;11.57;;;;;;;;;;2079007;28;20462;-51
2024/02/08 01:37:57;;;;;;;23.52;11.15;;;;;;;;;;2080578;28;20411;-51
2024/02/08 01:39:02;;;;;;;21.63;10.05;;;;;;;;;;2077862;28;20041;-52
2024/02/08 01:40:04;;;;;;;19.67;10.73;;;;;;;;;;2079622;28;20024;-49
2024/02/08 01:41:07;;;;;;;21.70;10.63;;;;;;;;;;2079926;28;20064;-49
2024/02/08 01:42:12;;;;;;;19.63;10.23;;;;;;;;;;2077942;28;20104;-51
2024/02/08 01:43:13;;;;;;;17.80;10.35;;;;;;;;;;2079475;28;20621;-49
2024/02/08 01:44:16;;;;;;;18.52;10.38;;;;;;;;;;2079705;28;20030;-51
2024/02/08 01:45:38;;;;;;;19.23;10.52;;;;;;;;;;2080030;28;20009;-50
2024/02/08 01:46:39;;;;;;;17.90;9.98;;;;;;;;;;2078685;28;20060;-50
2024/02/08 01:47:40;;;;;;;18.52;10.75;;;;;;;;;;2077470;28;20067;-52
2024/02/08 01:48:44;;;;;;;18.75;10.00;;;;;;;;;;2079603;28;20440;-50
2024/02/08 01:49:47;;;;;;;20.27;10.52;;;;;;;;;;2078813;28;20042;-50
2024/02/08 01:50:50;;;;;;;21.50;10.20;;;;;;;;;;2079805;28;20009;-50
2024/02/08 01:51:59;;;;;;;19.48;10.57;;;;;;;;;;2075786;28;20026;-51
2024/02/08 01:53:01;;;;;;;23.05;11.75;;;;;;;;;;2078692;28;20049;-51
2024/02/08 01:54:02;;;;;;;20.25;10.68;;;;;;;;;;2080524;28;20487;-52
2024/02/08 01:55:05;;;;;;;21.00;10.55;;;;;;;;;;2078820;28;20037;-51
2024/02/08 01:56:11;;;;;;;22.50;10.98;;;;;;;;;;2078007;28;20026;-51
2024/02/08 01:57:12;;;;;;;21.98;10.60;;;;;;;;;;2078970;28;20093;-50
2024/02/08 01:58:14;;;;;;;22.63;10.43;;;;;;;;;;2078341;28;20034;-50
2024/02/08 01:59:19;;;;;;;19.33;10.75;;;;;;;;;;2079631;28;20424;-49
2024/02/08 02:00:21;;;;;;;24.13;10.50;;;;;;;;;;2076653;28;20025;-51
2024/02/08 02:01:23;;;;;;;19.42;9.85;;;;;;;;;;2079701;28;20021;-51
2024/02/08 02:02:27;;;;;;;17.85;10.63;;;;;;;;;;2080553;28;20032;-52
2024/02/08 02:03:28;;;;;;;19.08;11.02;;;;;;;;;;2077384;28;20018;-52
2024/02/08 02:04:30;;;;;;;20.90;10.48;;;;;;;;;;2077907;28;20183;-50
2024/02/08 02:05:32;;;;;;;24.17;11.18;;;;;;;;;;2077704;28;20460;-52
2024/02/08 02:06:33;;;;;;;19.52;10.10;;;;;;;;;;2077187;28;20125;-52
2024/02/08 02:07:35;;;;;;;22.60;10.38;;;;;;;;;;2077395;28;20025;-52
2024/02/08 02:08:38;;;;;;;22.77;10.43;;;;;;;;;;2073173;28;20029;-50
2024/02/08 02:09:39;;;;;;;19.88;10.25;;;;;;;;;;2078866;28;20053;-52
2024/02/08 02:10:41;;;;;;;16.45;10.43;;;;;;;;;;2079487;28;20028;-51
2024/02/08 02:11:44;;;;;;;22.45;10.93;;;;;;;;;;2068636;28;20160;-51
2024/02/08 02:12:48;;;;;;;25.48;9.98;;;;;;;;;;2078303;28;20523;-48
2024/02/08 02:13:51;;;;;;;20.25;9.90;;;;;;;;;;2079404;28;20020;-50
2024/02/08 02:14:53;;;;;;;21.02;10.10;;;;;;;;;;2079685;28;20017;-49
2024/02/08 02:15:54;;;;;;;20.88;10.88;;;;;;;;;;2079632;28;20144;-50
2024/02/08 02:17:16;;;;;;;17.55;10.18;;;;;;;;;;2074409;28;20033;-48
2024/02/08 02:18:17;;;;;;;16.33;10.07;;;;;;;;;;2075856;28;20081;-51
2024/02/08 02:19:19;;;;;;;21.83;10.73;;;;;;;;;;2077600;28;20162;-50
2024/02/08 02:20:24;;;;;;;16.63;10.52;;;;;;;;;;2076752;28;20033;-49
2024/02/08 02:21:27;;;;;;;20.95;9.25;;;;;;;;;;2075311;28;20025;-48
2024/02/08 02:22:33;;;;;;;22.15;10.35;;;;;;;;;;2077308;28;20041;-49
2024/02/08 02:23:35;;;;;;;21.58;9.98;;;;;;;;;;2076189;28;20033;-49
2024/02/08 02:24:36;;;;;;;20.13;9.93;;;;;;;;;;2073706;28;20010;-48
2024/02/08 02:25:39;;;;;;;16.75;9.07;;;;;;;;;;2078465;28;20468;-49
2024/02/08 02:26:40;;;;;;;18.73;10.27;;;;;;;;;;2076831;28;20024;-48
2024/02/08 02:27:42;;;;;;;20.10;10.18;;;;;;;;;;2079754;28;20491;-49
2024/02/08 02:28:43;;;;;;;20.17;8.88;;;;;;;;;;2078393;28;22352;-47
2024/02/08 02:29:45;;;;;;;21.58;9.85;;;;;;;;;;2078824;28;20025;-48
2024/02/08 02:30:48;;;;;;;21.40;10.68;;;;;;;;;;2078057;28;20021;-49
2024/02/08 02:31:50;;;;;;;21.73;10.75;;;;;;;;;;2077130;28;20030;-49
2024/02/08 02:32:52;;;;;;;26.42;11.40;;;;;;;;;;2085789;28;20036;-48
2024/02/08 02:33:53;;;;;;;21.80;11.35;;;;;;;;;;2085836;28;20029;-48
2024/02/08 02:34:55;;;;;;;20.30;11.43;;;;;;;;;;2079781;28;20021;-47
2024/02/08 02:35:56;;;;;;;24.65;10.55;;;;;;;;;;2072773;28;20030;-49
2024/02/08 02:37:00;;;;;;;22.83;11.55;;;;;;;;;;2080200;28;20116;-46
2024/02/08 02:38:02;;;;;;;22.83;10.45;;;;;;;;;;2079499;28;20460;-47
2024/02/08 02:39:05;;;;;;;21.13;10.30;;;;;;;;;;2077451;28;20030;-47
2024/02/08 02:40:06;;;;;;;23.20;9.82;;;;;;;;;;2079841;28;20105;-49
2024/02/08 02:41:08;;;;;;;18.50;10.50;;;;;;;;;;2079222;28;20037;-48
2024/02/08 02:42:09;;;;;;;20.35;10.52;;;;;;;;;;2080185;28;20061;-49
2024/02/08 02:43:13;;;;;;;20.48;10.60;;;;;;;;;;2081604;28;20495;-48
2024/02/08 02:44:14;;;;;;;24.67;10.38;;;;;;;;;;2081719;28;20036;-48
2024/02/08 02:45:21;;;;;;;18.80;10.48;;;;;;;;;;2085809;28;20044;-49
2024/02/08 02:46:22;;;;;;;22.60;10.82;;;;;;;;;;2081619;28;20492;-49
2024/02/08 02:47:25;;;;;;;19.90;9.52;;;;;;;;;;2079628;28;20124;-48
2024/02/08 02:48:26;;;;;;;20.58;10.10;;;;;;;;;;2078526;28;20047;-48
2024/02/08 02:49:28;;;;;;;19.52;10.52;;;;;;;;;;2080426;28;20025;-48
2024/02/08 02:50:29;;;;;;;19.35;10.20;;;;;;;;;;2080579;28;20104;-48
2024/02/08 02:51:32;;;;;;;21.73;9.75;;;;;;;;;;2081457;28;20403;-48
2024/02/08 02:52:34;;;;;;;19.00;9.95;;;;;;;;;;2081486;28;20013;-49
2024/02/08 02:53:36;;;;;;;27.92;9.70;;;;;;;;;;2079469;28;20034;-49
2024/02/08 02:54:39;;;;;;;17.88;10.27;;;;;;;;;;2079623;28;20619;-49
2024/02/08 02:55:41;;;;;;;19.88;10.10;;;;;;;;;;2072334;28;20443;-47
2024/02/08 02:56:50;;;;;;;21.40;9.93;;;;;;;;;;2070803;28;20053;-49
2024/02/08 02:57:51;;;;;;;22.88;9.00;;;;;;;;;;2080332;28;20029;-49
2024/02/08 02:58:52;;;;;;;14.82;8.98;;;;;;;;;;2079806;28;20022;-49
2024/02/08 02:59:59;;;;;;;17.08;8.63;;;;;;;;;;2079051;28;20492;-48
2024/02/08 03:01:07;;;;;;;17.65;8.45;;;;;;;;;;2081398;28;20033;-48
2024/02/08 03:02:08;;;;;;;20.65;8.98;;;;;;;;;;2076389;28;20111;-50
2024/02/08 03:03:12;;;;;;;17.17;8.60;;;;;;;;;;2081174;28;20045;-49
2024/02/08 03:04:15;;;;;;;19.17;8.20;;;;;;;;;;2080217;28;20408;-48
2024/02/08 03:05:17;;;;;;;19.00;9.38;;;;;;;;;;2080356;28;20395;-50
2024/02/08 03:06:18;;;;;;;18.92;8.43;;;;;;;;;;2077985;28;20076;-50
2024/02/08 03:07:20;;;;;;;20.02;8.93;;;;;;;;;;2075583;28;20057;-47
2024/02/08 03:08:24;;;;;;;21.15;8.95;;;;;;;;;;2078669;28;20048;-49
2024/02/08 03:09:30;;;;;;;16.00;8.48;;;;;;;;;;2078963;28;20019;-49
2024/02/08 03:10:37;;;;;;;21.80;8.05;;;;;;;;;;2077151;28;20038;-49
2024/02/08 03:11:39;;;;;;;19.67;8.30;;;;;;;;;;2080330;28;20399;-49
2024/02/08 03:12:41;;;;;;;16.48;8.43;;;;;;;;;;2078343;28;20030;-49
2024/02/08 03:13:42;;;;;;;13.60;7.28;;;;;;;;;;2080956;28;20456;-49
2024/02/08 03:14:58;;;;;;;21.60;9.20;;;;;;;;;;2078313;28;20036;-48
2024/02/08 03:15:59;;;;;;;16.40;7.68;;;;;;;;;;2082874;28;20024;-49
2024/02/08 03:17:02;;;;;;;16.98;8.20;;;;;;;;;;2078943;28;20049;-47
2024/02/08 03:18:03;;;;;;;16.20;7.53;;;;;;;;;;2076617;28;20021;-48
2024/02/08 03:19:05;;;;;;;18.50;8.10;;;;;;;;;;2081111;28;20716;-50
2024/02/08 03:20:16;;;;;;;15.88;7.82;;;;;;;;;;2079784;28;20014;-50
2024/02/08 03:21:17;;;;;;;20.10;7.53;;;;;;;;;;2078080;28;20013;-49
2024/02/08 03:22:19;;;;;;;15.80;8.00;;;;;;;;;;2081591;28;20115;-50
2024/02/08 03:23:24;;;;;;;17.17;7.53;;;;;;;;;;2079674;28;20112;-49
2024/02/08 03:24:25;;;;;;;16.75;7.68;;;;;;;;;;2079644;28;20504;-49
2024/02/08 03:25:26;;;;;;;15.00;7.13;;;;;;;;;;2078621;28;20018;-49
2024/02/08 03:26:29;;;;;;;17.80;8.68;;;;;;;;;;2081486;28;20578;-50
2024/02/08 03:27:32;;;;;;;16.42;7.28;;;;;;;;;;2083465;28;20033;-50
2024/02/08 03:28:35;;;;;;;15.88;7.57;;;;;;;;;;2081182;28;20373;-49
2024/02/08 03:29:39;;;;;;;17.50;7.38;;;;;;;;;;2080397;28;20017;-49
2024/02/08 03:30:41;;;;;;;16.75;7.95;;;;;;;;;;2071884;28;20017;-49
2024/02/08 03:31:46;;;;;;;16.63;7.93;;;;;;;;;;2071764;28;20038;-47
2024/02/08 03:32:51;;;;;;;17.98;8.05;;;;;;;;;;2087637;28;20021;-50
2024/02/08 03:33:53;;;;;;;16.70;8.63;;;;;;;;;;2071892;28;20038;-48
2024/02/08 03:34:56;;;;;;;17.88;7.72;;;;;;;;;;2072884;28;20408;-49
2024/02/08 03:35:57;;;;;;;14.77;8.23;;;;;;;;;;2080064;28;20019;-48
2024/02/08 03:36:59;;;;;;;18.33;8.32;;;;;;;;;;2078949;28;20481;-48
2024/02/08 03:38:00;;;;;;;15.65;8.23;;;;;;;;;;2080566;28;20025;-48
2024/02/08 03:39:03;;;;;;;18.77;8.35;;;;;;;;;;2078809;28;20038;-48
2024/02/08 03:40:05;;;;;;;15.57;7.55;;;;;;;;;;2081251;28;20437;-48
2024/02/08 03:41:07;;;;;;;16.42;7.82;;;;;;;;;;2079225;28;20029;-48
2024/02/08 03:42:11;;;;;;;15.07;8.35;;;;;;;;;;2077380;28;20403;-48
2024/02/08 03:43:15;;;;;;;23.70;9.18;;;;;;;;;;2076571;28;20124;-48
2024/02/08 03:44:16;;;;;;;24.95;10.10;;;;;;;;;;2077314;28;20534;-48
2024/02/08 03:45:20;;;;;;;21.00;8.45;;;;;;;;;;2081127;28;20024;-49
2024/02/08 03:46:21;;;;;;;17.17;8.45;;;;;;;;;;2079619;28;20353;-49
2024/02/08 03:47:22;;;;;;;19.10;8.10;;;;;;;;;;2080182;28;20030;-49
2024/02/08 03:48:24;;;;;;;17.02;8.18;;;;;;;;;;2077689;28;20010;-48
2024/02/08 03:49:25;;;;;;;17.65;8.57;;;;;;;;;;2079551;28;20515;-48
2024/02/08 03:50:27;;;;;;;22.10;8.55;;;;;;;;;;2077954;28;20395;-48
2024/02/08 03:51:30;;;;;;;19.60;8.52;;;;;;;;;;2078825;28;20411;-48
2024/02/08 03:52:31;;;;;;;17.13;8.32;;;;;;;;;;2080035;28;20026;-47
2024/02/08 03:53:36;;;;;;;16.30;8.23;;;;;;;;;;2074750;28;20491;-48
2024/02/08 03:54:41;;;;;;;17.77;8.65;;;;;;;;;;2079775;28;20024;-48
2024/02/08 03:55:43;;;;;;;18.02;7.85;;;;;;;;;;2076974;28;20029;-48
2024/02/08 03:56:45;;;;;;;19.40;8.48;;;;;;;;;;2080996;28;20032;-48
2024/02/08 03:57:48;;;;;;;14.50;8.25;;;;;;;;;;2080394;28;20030;-48
2024/02/08 03:58:50;;;;;;;19.88;8.68;;;;;;;;;;2078957;28;20080;-48
2024/02/08 03:59:52;;;;;;;26.45;9.93;;;;;;;;;;2076320;28;20399;-48
2024/02/08 04:00:53;;;;;;;23.73;8.98;;;;;;;;;;2078621;28;20041;-47
2024/02/08 04:02:03;;;;;;;18.90;8.52;;;;;;;;;;2080599;28;20548;-48
2024/02/08 04:03:10;;;;;;;19.48;8.68;;;;;;;;;;2079715;28;20026;-47
2024/02/08 04:04:12;;;;;;;22.08;8.95;;;;;;;;;;2079547;28;20021;-49
2024/02/08 04:05:22;;;;;;;15.85;8.48;;;;;;;;;;2081087;28;20030;-49
2024/02/08 04:06:49;;;;;;;21.08;8.70;;;;;;;;;;2075385;28;20136;-49
2024/02/08 04:08:02;;;;;;;23.90;8.52;;;;;;;;;;2081136;28;20533;-47
2024/02/08 04:09:09;;;;;;;17.92;7.90;;;;;;;;;;2067176;28;20033;-47
2024/02/08 04:10:18;;;;;;;17.17;8.48;;;;;;;;;;2073139;28;20101;-50
2024/02/08 04:53:40;;;;;;;19.92;8.75;;;;;;;;;;2079711;28;20029;-51
2024/02/08 04:54:43;;;;;;;22.15;10.35;;;;;;;;;;2075829;28;20510;-51
2024/02/08 04:55:45;;;;;;;26.95;10.55;;;;;;;;;;2077131;28;20469;-55
2024/02/08 04:56:47;;;;;;;22.40;10.20;;;;;;;;;;2076156;28;20038;-53
2024/02/08 04:57:48;;;;;;;26.17;10.82;;;;;;;;;;2080370;28;20593;-50
2024/02/08 04:58:50;;;;;;;28.33;11.02;;;;;;;;;;2078467;28;20034;-52
2024/02/08 04:59:51;;;;;;;23.98;10.57;;;;;;;;;;2081144;28;20414;-53
2024/02/08 05:00:53;;;;;;;28.25;11.02;;;;;;;;;;2080379;28;20026;-53
2024/02/08 05:01:54;;;;;;;24.25;9.98;;;;;;;;;;2077348;28;20427;-51
2024/02/08 05:03:02;;;;;;;23.35;10.40;;;;;;;;;;2080568;28;20029;-53
2024/02/08 05:04:03;;;;;;;27.88;10.57;;;;;;;;;;2077830;28;20022;-52
2024/02/08 05:05:07;;;;;;;25.35;9.35;;;;;;;;;;2079814;28;20021;-53
2024/02/08 05:06:15;;;;;;;30.23;9.20;;;;;;;;;;2079393;28;20411;-48
2024/02/08 05:07:16;;;;;;;25.13;9.98;;;;;;;;;;2077952;28;20034;-53
2024/02/08 05:08:17;;;;;;;28.67;10.02;;;;;;;;;;2080630;28;20392;-55
2024/02/08 05:09:22;;;;;;;19.65;9.32;;;;;;;;;;2079479;28;20025;-50
2024/02/08 05:10:27;;;;;;;22.02;9.98;;;;;;;;;;2081622;28;20029;-51
2024/02/08 05:11:29;;;;;;;24.50;9.75;;;;;;;;;;2076894;28;20029;-49
2024/02/08 05:12:30;;;;;;;23.33;10.57;;;;;;;;;;2078134;28;20407;-52
2024/02/08 05:13:31;;;;;;;62.50;28.17;;;;;;;;;;2077018;28;20018;-54
2024/02/08 05:14:36;;;;;;;41.42;17.77;;;;;;;;;;2078399;28;20052;-53
2024/02/08 05:15:37;;;;;;;31.27;13.25;;;;;;;;;;2080551;28;20017;-53
2024/02/08 05:16:40;;;;;;;22.95;11.00;;;;;;;;;;2071677;28;20030;-52
2024/02/08 05:17:41;;;;;;;27.85;9.52;;;;;;;;;;2068039;28;20022;-52
2024/02/08 05:18:45;;;;;;;22.02;9.02;;;;;;;;;;2079385;28;20524;-51
2024/02/08 05:19:47;;;;;;;28.17;10.27;;;;;;;;;;2078370;28;20116;-54
2024/02/08 05:20:48;;;;;;;21.70;9.52;;;;;;;;;;2080525;28;20021;-51
2024/02/08 05:21:50;;;;;;;22.48;9.57;;;;;;;;;;2076807;28;20077;-51
2024/02/08 05:22:52;;;;;;;21.98;9.40;;;;;;;;;;2075095;28;20030;-54
2024/02/08 05:23:53;;;;;;;17.27;8.38;;;;;;;;;;2080951;28;20102;-53
2024/02/08 05:24:54;;;;;;;28.00;9.63;;;;;;;;;;2078257;28;20045;-52
2024/02/08 05:25:56;;;;;;;19.60;8.60;;;;;;;;;;2077087;28;20080;-52
2024/02/08 05:26:58;;;;;;;26.23;9.10;;;;;;;;;;2079085;28;20029;-51
2024/02/08 05:27:59;;;;;;;22.15;9.10;;;;;;;;;;2074545;28;20887;-48
2024/02/08 05:29:00;;;;;;;20.10;8.63;;;;;;;;;;2078233;28;20029;-49
2024/02/08 05:30:02;;;;;;;24.17;9.07;;;;;;;;;;2080788;28;20056;-48
2024/02/08 05:31:04;;;;;;;20.33;8.77;;;;;;;;;;2077954;28;20022;-48
2024/02/08 05:32:06;;;;;;;25.08;9.70;;;;;;;;;;2080116;28;20117;-49
2024/02/08 05:33:08;;;;;;;20.35;8.90;;;;;;;;;;2076850;28;20012;-49
2024/02/08 05:34:11;;;;;;;22.65;8.40;;;;;;;;;;2078566;28;20783;-48
2024/02/08 05:35:13;;;;;;;21.08;8.88;;;;;;;;;;2079590;28;20013;-49
2024/02/08 05:36:17;;;;;;;27.45;9.32;;;;;;;;;;2081000;28;20022;-47
2024/02/08 05:37:25;;;;;;;23.90;9.23;;;;;;;;;;2074659;28;20029;-48
2024/02/08 05:38:26;;;;;;;25.83;9.18;;;;;;;;;;2085027;28;20026;-48
2024/02/08 05:39:28;;;;;;;18.40;8.77;;;;;;;;;;2084772;28;20066;-48
2024/02/08 05:40:31;;;;;;;25.33;9.07;;;;;;;;;;2080613;28;20030;-49
2024/02/08 05:41:35;;;;;;;25.70;9.20;;;;;;;;;;2078200;28;20397;-49
2024/02/08 05:42:36;;;;;;;23.48;9.25;;;;;;;;;;2080355;28;20041;-49
2024/02/08 05:43:48;;;;;;;27.08;9.57;;;;;;;;;;2079806;28;20013;-48
2024/02/08 05:44:49;;;;;;;22.13;8.35;;;;;;;;;;2080701;28;20484;-48
2024/02/08 05:45:51;;;;;;;24.88;9.18;;;;;;;;;;2076676;28;20048;-49
2024/02/08 05:46:54;;;;;;;18.70;8.52;;;;;;;;;;2075330;28;20049;-48
2024/02/08 05:48:00;;;;;;;18.20;8.57;;;;;;;;;;2076813;28;20017;-48
2024/02/08 05:49:04;;;;;;;22.77;8.93;;;;;;;;;;2077645;28;20541;-48
2024/02/08 05:50:07;;;;;;;19.58;9.18;;;;;;;;;;2080739;28;20334;-49
2024/02/08 05:51:13;;;;;;;28.90;9.50;;;;;;;;;;2075432;28;20033;-49
2024/02/08 05:52:18;;;;;;;28.25;10.60;;;;;;;;;;2076246;28;20528;-49
2024/02/08 05:53:19;;;;;;;20.80;9.23;;;;;;;;;;2080530;28;20030;-49
2024/02/08 05:54:20;;;;;;;19.75;10.68;;;;;;;;;;2078728;28;20057;-49
2024/02/08 05:55:21;;;;;;;29.75;10.30;;;;;;;;;;2077654;28;20029;-48
2024/02/08 05:56:25;;;;;;;31.10;10.32;;;;;;;;;;2077464;28;20047;-49
2024/02/08 05:57:30;;;;;;;28.02;10.95;;;;;;;;;;2077033;28;20109;-49
2024/02/08 05:58:33;;;;;;;20.63;9.18;;;;;;;;;;2079312;28;20041;-48
2024/02/08 05:59:36;;;;;;;25.55;9.50;;;;;;;;;;2076250;28;20045;-47
2024/02/08 06:00:45;;;;;;;25.13;9.48;;;;;;;;;;2078868;28;20017;-49
2024/02/08 06:01:54;;;;;;;20.77;9.38;;;;;;;;;;2080468;28;20029;-47
2024/02/08 06:02:57;;;;;;;21.83;9.32;;;;;;;;;;2079833;28;20506;-49
2024/02/08 06:04:01;;;;;;;24.25;9.02;;;;;;;;;;2080211;28;20017;-50
2024/02/08 06:05:08;;;;;;;25.60;10.30;;;;;;;;;;2078602;28;20095;-46
2024/02/08 06:06:58;;;;;;;24.08;9.88;;;;;;;;;;2072678;28;20476;-48
2024/02/08 06:07:36;;;;;;;19.25;8.88;;;;;;;;;;2077597;28;20100;-48
2024/02/08 06:08:41;;;;;;;20.05;8.93;;;;;;;;;;2075381;28;20022;-48
2024/02/08 06:10:50;;;;;;;20.73;8.35;;;;;;;;;;2080472;28;20037;-50
2024/02/08 06:11:51;;;;;;;23.27;8.80;;;;;;;;;;2080862;28;20021;-48
2024/02/08 06:12:59;;;;;;;18.75;8.52;;;;;;;;;;2077691;28;20842;-51
2024/02/08 06:14:06;;;;;;;22.38;9.63;;;;;;;;;;2076366;28;20356;-54
2024/02/08 06:15:32;;;;;;;25.80;9.30;;;;;;;;;;2080350;28;20080;-53
2024/02/08 06:16:45;;;;;;;25.30;9.30;;;;;;;;;;2075656;28;20030;-53
2024/02/08 06:17:51;;;;;;;18.80;8.68;;;;;;;;;;2080456;28;20029;-54
2024/02/08 06:18:57;;;;;;;19.90;8.82;;;;;;;;;;2073484;28;20018;-52
2024/02/08 06:20:00;;;;;;;16.85;9.10;;;;;;;;;;2078546;28;20034;-52
2024/02/08 06:21:12;;;;;;;24.63;9.05;;;;;;;;;;2077586;28;20026;-52
2024/02/08 06:22:20;;;;;;;24.00;8.82;;;;;;;;;;2080070;28;20033;-51
2024/02/08 06:23:26;;;;;;;17.25;8.20;;;;;;;;;;2077226;28;20025;-53
2024/02/08 06:25:31;;;;;;;19.65;7.75;;;;;;;;;;2080476;28;20013;-53
2024/02/08 06:26:33;;;;;;;23.02;9.02;;;;;;;;;;2080180;28;20467;-54
2024/02/08 06:27:37;;;;;;;22.00;9.38;;;;;;;;;;2078858;28;20018;-50
2024/02/08 06:28:52;;;;;;;21.17;8.85;;;;;;;;;;2078420;28;20075;-52
2024/02/08 06:29:54;;;;;;;24.25;8.43;;;;;;;;;;2080485;28;20439;-48
2024/02/08 06:30:58;;;;;;;24.05;8.13;;;;;;;;;;2079993;28;20030;-51
2024/02/08 06:32:12;;;;;;;21.83;8.45;;;;;;;;;;2079337;28;20017;-53
2024/02/08 06:33:25;;;;;;;29.58;8.57;;;;;;;;;;2080275;28;20052;-51
2024/02/08 06:34:42;;;;;;;23.63;7.88;;;;;;;;;;2079991;28;20056;-54
2024/02/08 06:35:45;;;;;;;22.27;9.00;;;;;;;;;;2076941;28;20044;-50
2024/02/08 06:36:58;;;;;;;23.10;8.05;;;;;;;;;;2076146;28;20477;-52
2024/02/08 06:38:02;;;;;;;19.85;8.25;;;;;;;;;;2080158;28;20088;-53
2024/02/08 06:39:20;;;;;;;22.38;9.85;;;;;;;;;;2074514;28;20025;-53
2024/02/08 06:40:36;;;;;;;25.33;8.70;;;;;;;;;;2079332;28;20048;-53
2024/02/08 06:42:00;;;;;;;25.42;8.68;;;;;;;;;;2078229;28;20018;-53
2024/02/08 06:46:48;;;;;;;24.33;9.02;;;;;;;;;;2074869;28;20493;-47
2024/02/08 07:37:25;;;;;;;27.40;11.40;;;;;;;;;;2081971;28;20026;-49
2024/02/08 07:39:46;;;;;;;24.70;10.82;;;;;;;;;;2074252;28;20484;-50
2024/02/08 07:40:51;;;;;;;32.90;10.63;;;;;;;;;;2081475;28;20030;-50
2024/02/08 07:41:55;;;;;;;31.80;10.75;;;;;;;;;;2079728;28;20024;-49
2024/02/08 07:44:31;;;;;;;23.20;11.38;;;;;;;;;;2080590;28;20036;-49
2024/02/08 07:45:33;;;;;;;21.88;9.30;;;;;;;;;;2074541;28;20025;-49
2024/02/08 07:46:34;;;;;;;25.05;10.38;;;;;;;;;;2076041;28;20488;-50
2024/02/08 07:47:35;;;;;;;26.17;10.30;;;;;;;;;;2082477;28;20112;-50
2024/02/08 07:48:43;;;;;;;16.77;9.02;;;;;;;;;;2077057;28;20026;-49
2024/02/08 07:49:44;;;;;;;25.80;9.35;;;;;;;;;;2080732;28;20021;-50
2024/02/08 07:50:45;;;;;;;20.33;9.85;;;;;;;;;;2074111;28;20072;-49
2024/02/08 07:51:50;;;;;;;22.30;9.23;;;;;;;;;;2078681;28;20412;-49
2024/02/08 07:52:58;;;;;;;20.75;8.98;;;;;;;;;;2074214;28;20548;-49